createdAt,value
2018-10-01T00:01:27.261Z,13.43
2018-10-01T00:03:54.574Z,13.85
2018-10-01T00:06:21.854Z,14.85
2018-10-01T00:08:49.242Z,14.98
2018-10-01T00:11:17.201Z,13.62
2018-10-01T00:13:44.646Z,14.40
2018-10-01T00:16:12.761Z,14.80
2018-10-01T00:18:40.096Z,13.53
2018-10-01T00:21:12.865Z,14.23
2018-10-01T00:23:40.212Z,14.90
2018-10-01T00:26:07.630Z,16.02
2018-10-01T00:28:35.000Z,14.53
2018-10-01T00:31:02.398Z,13.93
2018-10-01T00:33:29.758Z,13.45
2018-10-01T00:35:57.085Z,15.05
2018-10-01T00:38:25.379Z,15.38
2018-10-01T00:40:52.617Z,15.70
2018-10-01T00:43:19.977Z,15.10
2018-10-01T00:45:47.421Z,15.50
2018-10-01T00:48:14.906Z,16.12
2018-10-01T00:50:42.213Z,13.83
2018-10-01T00:53:09.613Z,14.58
2018-10-01T00:55:36.960Z,14.43
2018-10-01T00:58:05.152Z,15.15
2018-10-01T01:00:32.545Z,14.53
2018-10-01T01:02:59.934Z,15.38
2018-10-01T01:05:27.496Z,15.72
2018-10-01T01:07:54.837Z,13.43
2018-10-01T01:10:22.253Z,14.65
2018-10-01T01:12:49.533Z,13.43
2018-10-01T01:15:16.978Z,15.32
2018-10-01T01:17:44.226Z,15.48
2018-10-01T01:20:11.706Z,14.87
2018-10-01T01:22:39.094Z,14.68
2018-10-01T01:25:06.445Z,14.95
2018-10-01T01:27:34.013Z,15.15
2018-10-01T01:30:01.400Z,14.93
2018-10-01T01:32:28.830Z,14.68
2018-10-01T01:34:56.157Z,14.50
2018-10-01T01:37:23.521Z,14.95
2018-10-01T01:39:50.958Z,14.83
2018-10-01T01:42:18.254Z,15.15
2018-10-01T01:44:46.324Z,14.98
2018-10-01T01:47:13.695Z,15.23
2018-10-01T01:49:40.999Z,14.00
2018-10-01T01:52:08.289Z,15.50
2018-10-01T01:54:35.577Z,15.18
2018-10-01T01:57:02.858Z,15.95
2018-10-01T01:59:30.234Z,14.83
2018-10-01T02:02:01.954Z,16.15
2018-10-01T02:04:29.288Z,15.30
2018-10-01T02:06:56.600Z,15.68
2018-10-01T02:09:24.867Z,15.50
2018-10-01T02:11:52.157Z,16.00
2018-10-01T02:14:19.445Z,14.73
2018-10-01T02:16:46.857Z,16.15
2018-10-01T02:19:14.253Z,16.50
2018-10-01T02:21:41.662Z,16.12
2018-10-01T02:24:08.997Z,17.30
2018-10-01T02:26:36.550Z,19.90
2018-10-01T02:29:03.934Z,15.90
2018-10-01T02:31:31.218Z,15.28
2018-10-01T02:33:58.509Z,15.93
2018-10-01T02:36:25.793Z,15.43
2018-10-01T02:38:53.230Z,17.00
2018-10-01T02:41:20.745Z,16.50
2018-10-01T02:43:48.122Z,16.23
2018-10-01T02:46:15.537Z,16.87
2018-10-01T02:48:42.909Z,15.65
2018-10-01T02:51:10.289Z,15.83
2018-10-01T02:53:43.715Z,15.72
2018-10-01T02:56:11.053Z,16.30
2018-10-01T02:58:38.520Z,16.82
2018-10-01T03:01:05.974Z,16.50
2018-10-01T03:03:33.481Z,16.87
2018-10-01T03:06:00.833Z,15.78
2018-10-01T03:08:28.172Z,16.25
2018-10-01T03:10:55.522Z,16.30
2018-10-01T03:13:22.838Z,16.10
2018-10-01T03:15:50.210Z,15.18
2018-10-01T03:18:17.604Z,17.25
2018-10-01T03:20:45.121Z,15.10
2018-10-01T03:23:12.478Z,15.90
2018-10-01T03:25:39.852Z,15.93
2018-10-01T03:28:07.161Z,15.80
2018-10-01T03:30:35.118Z,15.78
2018-10-01T03:33:02.513Z,17.32
2018-10-01T03:35:29.868Z,15.48
2018-10-01T03:37:57.253Z,15.70
2018-10-01T03:40:24.658Z,16.02
2018-10-01T03:42:51.923Z,16.02
2018-10-01T03:45:19.253Z,17.57
2018-10-01T03:47:47.377Z,15.30
2018-10-01T03:50:14.729Z,18.07
2018-10-01T03:52:42.081Z,16.90
2018-10-01T03:55:09.430Z,15.83
2018-10-01T03:57:36.890Z,15.80
2018-10-01T04:00:04.220Z,15.40
2018-10-01T04:02:31.705Z,15.45
2018-10-01T04:04:59.049Z,14.63
2018-10-01T04:07:26.426Z,14.60
2018-10-01T04:09:53.805Z,14.63
2018-10-01T04:12:21.189Z,15.15
2018-10-01T04:14:48.519Z,15.53
2018-10-01T04:17:16.030Z,16.12
2018-10-01T04:19:43.386Z,15.88
2018-10-01T04:22:10.742Z,16.23
2018-10-01T04:24:38.008Z,15.45
2018-10-01T04:27:05.330Z,14.90
2018-10-01T04:29:32.694Z,15.90
2018-10-01T04:32:00.082Z,15.58
2018-10-01T04:34:27.427Z,15.43
2018-10-01T04:36:54.769Z,15.72
2018-10-01T04:39:22.024Z,15.03
2018-10-01T04:41:49.365Z,16.00
2018-10-01T04:44:16.615Z,14.63
2018-10-01T04:46:43.993Z,16.82
2018-10-01T04:49:11.960Z,14.90
2018-10-01T04:51:40.338Z,16.10
2018-10-01T04:54:07.674Z,14.38
2018-10-01T04:56:35.097Z,15.80
2018-10-01T04:59:02.582Z,16.30
2018-10-01T05:01:29.910Z,17.85
2018-10-01T05:03:57.241Z,15.28
2018-10-01T05:06:24.557Z,15.75
2018-10-01T05:08:51.930Z,15.48
2018-10-01T05:11:19.309Z,16.17
2018-10-01T05:13:46.754Z,14.20
2018-10-01T05:16:14.041Z,14.80
2018-10-01T05:18:41.538Z,14.75
2018-10-01T05:21:08.952Z,16.42
2018-10-01T05:23:36.557Z,15.25
2018-10-01T05:26:03.833Z,16.75
2018-10-01T05:28:31.117Z,14.83
2018-10-01T05:30:58.501Z,17.30
2018-10-01T05:33:26.003Z,16.80
2018-10-01T05:35:53.280Z,14.68
2018-10-01T05:38:20.665Z,17.02
2018-10-01T05:40:47.979Z,15.53
2018-10-01T05:43:15.277Z,15.00
2018-10-01T05:45:42.558Z,14.83
2018-10-01T05:48:09.918Z,15.20
2018-10-01T05:50:37.253Z,14.60
2018-10-01T05:53:04.597Z,16.00
2018-10-01T05:55:32.130Z,16.15
2018-10-01T05:57:59.615Z,15.60
2018-10-01T06:00:27.804Z,16.87
2018-10-01T06:02:55.138Z,16.60
2018-10-01T06:05:22.438Z,15.70
2018-10-01T06:07:49.753Z,16.32
2018-10-01T06:10:17.087Z,16.65
2018-10-01T06:12:44.571Z,15.60
2018-10-01T06:15:12.171Z,16.27
2018-10-01T06:17:39.530Z,15.83
2018-10-01T06:20:07.050Z,15.23
2018-10-01T06:22:34.708Z,16.95
2018-10-01T06:25:02.191Z,14.68
2018-10-01T06:27:29.433Z,17.20
2018-10-01T06:29:56.878Z,17.23
2018-10-01T06:32:24.298Z,17.48
2018-10-01T06:34:51.676Z,15.30
2018-10-01T06:37:19.066Z,14.53
2018-10-01T06:39:46.553Z,16.30
2018-10-01T06:42:13.916Z,16.20
2018-10-01T06:44:41.355Z,15.63
2018-10-01T06:47:08.651Z,17.10
2018-10-01T06:49:35.938Z,17.65
2018-10-01T06:52:03.301Z,15.68
2018-10-01T06:54:30.751Z,16.50
2018-10-01T06:56:58.000Z,14.98
2018-10-01T06:59:25.345Z,15.58
2018-10-01T07:01:52.671Z,13.93
2018-10-01T07:04:20.103Z,15.10
2018-10-01T07:06:47.694Z,14.80
2018-10-01T07:09:14.973Z,14.03
2018-10-01T07:11:42.496Z,15.88
2018-10-01T07:14:16.445Z,15.48
2018-10-01T07:16:43.927Z,15.88
2018-10-01T07:19:11.196Z,16.10
2018-10-01T07:21:38.485Z,14.05
2018-10-01T07:24:05.446Z,14.78
2018-10-01T07:26:32.822Z,15.78
2018-10-01T07:29:00.559Z,15.15
2018-10-01T07:31:27.852Z,13.58
2018-10-01T07:33:55.141Z,13.58
2018-10-01T07:36:22.698Z,13.70
2018-10-01T07:38:50.052Z,14.63
2018-10-01T07:41:17.439Z,14.30
2018-10-01T07:43:45.498Z,15.83
2018-10-01T07:46:12.833Z,14.73
2018-10-01T07:48:40.314Z,14.85
2018-10-01T07:51:07.937Z,13.80
2018-10-01T07:53:35.197Z,13.72
2018-10-01T07:56:02.478Z,17.57
2018-10-01T07:58:31.025Z,13.85
2018-10-01T08:00:58.519Z,14.18
2018-10-01T08:03:26.269Z,13.60
2018-10-01T08:05:53.653Z,13.72
2018-10-01T08:08:21.086Z,13.88
2018-10-01T08:10:48.531Z,13.68
2018-10-01T08:13:16.406Z,14.47
2018-10-01T08:15:44.071Z,15.20
2018-10-01T08:18:11.571Z,13.15
2018-10-01T08:20:39.007Z,14.15
2018-10-01T08:23:06.348Z,13.20
2018-10-01T08:25:33.710Z,14.18
2018-10-01T08:28:01.055Z,13.40
2018-10-01T08:30:28.440Z,13.65
2018-10-01T08:32:55.795Z,13.22
2018-10-01T08:35:23.176Z,14.03
2018-10-01T08:37:50.533Z,13.30
2018-10-01T08:40:17.986Z,14.68
2018-10-01T08:42:45.354Z,13.10
2018-10-01T08:45:12.853Z,12.60
2018-10-01T08:47:40.291Z,13.62
2018-10-01T08:50:11.846Z,13.13
2018-10-01T08:52:45.469Z,13.05
2018-10-01T08:55:12.973Z,13.93
2018-10-01T08:57:40.377Z,12.58
2018-10-01T09:00:07.833Z,16.55
2018-10-01T09:02:35.294Z,13.15
2018-10-01T09:05:02.797Z,13.80
2018-10-01T09:07:30.137Z,12.70
2018-10-01T09:09:57.404Z,12.82
2018-10-01T09:12:24.716Z,14.23
2018-10-01T09:14:52.211Z,12.60
2018-10-01T09:17:19.564Z,12.55
2018-10-01T09:19:46.870Z,13.32
2018-10-01T09:22:14.266Z,13.68
2018-10-01T09:24:41.597Z,13.95
2018-10-01T09:27:09.026Z,12.88
2018-10-01T09:29:36.467Z,13.75
2018-10-01T09:32:03.839Z,12.73
2018-10-01T09:34:31.099Z,12.82
2018-10-01T09:36:58.609Z,14.10
2018-10-01T09:39:25.902Z,12.58
2018-10-01T09:41:53.280Z,13.30
2018-10-01T09:44:20.577Z,14.20
2018-10-01T09:46:47.854Z,13.68
2018-10-01T09:49:15.232Z,14.23
2018-10-01T09:51:42.690Z,12.03
2018-10-01T09:54:10.085Z,12.75
2018-10-01T09:56:37.506Z,13.70
2018-10-01T09:59:04.829Z,13.15
2018-10-01T10:01:32.210Z,13.50
2018-10-01T10:03:59.545Z,12.98
2018-10-01T10:06:26.926Z,13.15
2018-10-01T10:08:54.251Z,13.72
2018-10-01T10:11:21.576Z,14.18
2018-10-01T10:13:48.926Z,13.15
2018-10-01T10:16:17.074Z,14.90
2018-10-01T10:18:44.286Z,13.90
2018-10-01T10:21:11.569Z,12.43
2018-10-01T10:23:38.943Z,13.15
2018-10-01T10:26:06.681Z,13.35
2018-10-01T10:28:35.034Z,12.45
2018-10-01T10:31:02.242Z,14.07
2018-10-01T10:33:29.565Z,13.13
2018-10-01T10:35:56.942Z,13.98
2018-10-01T10:38:24.323Z,12.88
2018-10-01T10:40:52.756Z,13.13
2018-10-01T10:43:20.025Z,13.20
2018-10-01T10:45:47.358Z,13.08
2018-10-01T10:48:15.247Z,12.30
2018-10-01T10:50:42.605Z,12.93
2018-10-01T10:53:09.850Z,11.60
2018-10-01T10:55:37.221Z,12.05
2018-10-01T10:58:04.564Z,13.10
2018-10-01T11:00:31.861Z,13.38
2018-10-01T11:02:59.174Z,14.10
2018-10-01T11:05:26.750Z,12.45
2018-10-01T11:07:54.197Z,12.35
2018-10-01T11:10:21.714Z,11.57
2018-10-01T11:12:49.140Z,11.65
2018-10-01T11:15:17.679Z,12.40
2018-10-01T11:17:44.856Z,12.43
2018-10-01T11:20:12.131Z,11.90
2018-10-01T11:22:39.504Z,12.70
2018-10-01T11:25:07.105Z,12.35
2018-10-01T11:27:34.521Z,11.48
2018-10-01T11:30:01.853Z,12.90
2018-10-01T11:32:29.387Z,13.05
2018-10-01T11:34:56.988Z,14.55
2018-10-01T11:37:24.293Z,13.65
2018-10-01T11:39:51.834Z,14.53
2018-10-01T11:42:19.151Z,13.08
2018-10-01T11:44:46.500Z,12.58
2018-10-01T11:47:13.846Z,12.37
2018-10-01T11:49:41.216Z,13.22
2018-10-01T11:52:08.538Z,11.43
2018-10-01T11:54:36.097Z,12.03
2018-10-01T11:57:03.541Z,13.32
2018-10-01T11:59:30.914Z,12.43
2018-10-01T12:01:58.726Z,11.45
2018-10-01T12:04:26.098Z,11.57
2018-10-01T12:06:53.507Z,12.05
2018-10-01T12:09:20.984Z,11.83
2018-10-01T12:11:48.265Z,10.85
2018-10-01T12:14:15.601Z,10.50
2018-10-01T12:16:42.901Z,11.45
2018-10-01T12:19:10.373Z,10.40
2018-10-01T12:21:38.751Z,10.93
2018-10-01T12:24:06.705Z,10.35
2018-10-01T12:26:34.184Z,10.13
2018-10-01T12:29:01.636Z,9.83
2018-10-01T12:31:29.578Z,11.08
2018-10-01T12:33:56.915Z,11.08
2018-10-01T12:36:24.394Z,10.98
2018-10-01T12:38:51.979Z,11.03
2018-10-01T12:41:19.361Z,12.10
2018-10-01T12:43:46.764Z,11.08
2018-10-01T12:46:14.145Z,10.68
2018-10-01T12:48:41.493Z,9.90
2018-10-01T12:51:08.832Z,11.28
2018-10-01T12:53:36.893Z,11.53
2018-10-01T12:56:04.273Z,12.33
2018-10-01T12:58:31.734Z,12.28
2018-10-01T13:00:59.405Z,11.30
2018-10-01T13:03:26.819Z,11.00
2018-10-01T13:05:54.234Z,11.50
2018-10-01T13:08:21.530Z,11.83
2018-10-01T13:10:48.846Z,12.10
2018-10-01T13:13:16.240Z,12.50
2018-10-01T13:15:43.814Z,12.07
2018-10-01T13:18:11.886Z,11.63
2018-10-01T13:20:39.335Z,11.57
2018-10-01T13:23:06.635Z,10.88
2018-10-01T13:25:34.101Z,11.63
2018-10-01T13:28:01.493Z,12.43
2018-10-01T13:30:28.823Z,12.82
2018-10-01T13:32:56.170Z,12.10
2018-10-01T13:35:23.544Z,11.97
2018-10-01T13:37:50.952Z,13.53
2018-10-01T13:40:18.268Z,14.55
2018-10-01T13:42:45.676Z,13.83
2018-10-01T13:45:12.977Z,11.88
2018-10-01T13:47:41.084Z,10.20
2018-10-01T13:50:08.458Z,11.90
2018-10-01T13:52:35.793Z,10.55
2018-10-01T13:55:04.078Z,11.93
2018-10-01T13:57:31.521Z,10.13
2018-10-01T13:59:58.868Z,11.12
2018-10-01T14:02:26.453Z,10.45
2018-10-01T14:04:53.984Z,10.85
2018-10-01T14:07:21.330Z,11.22
2018-10-01T14:09:48.668Z,11.63
2018-10-01T14:12:17.075Z,11.20
2018-10-01T14:14:44.442Z,11.12
2018-10-01T14:17:11.911Z,10.98
2018-10-01T14:19:39.318Z,11.05
2018-10-01T14:22:06.616Z,11.30
2018-10-01T14:24:33.978Z,11.03
2018-10-01T14:27:01.366Z,10.20
2018-10-01T14:29:28.728Z,11.53
2018-10-01T14:31:56.210Z,12.23
2018-10-01T14:34:23.570Z,11.97
2018-10-01T14:36:51.019Z,11.60
2018-10-01T14:39:18.326Z,10.50
2018-10-01T14:41:45.719Z,11.22
2018-10-01T14:44:13.140Z,11.80
2018-10-01T14:46:40.607Z,11.90
2018-10-01T14:49:08.002Z,13.08
2018-10-01T14:51:35.401Z,12.30
2018-10-01T14:54:02.805Z,12.43
2018-10-01T14:56:30.105Z,11.25
2018-10-01T14:58:57.421Z,11.33
2018-10-01T15:01:24.801Z,11.08
2018-10-01T15:03:52.294Z,11.73
2018-10-01T15:06:19.696Z,12.68
2018-10-01T15:08:47.227Z,11.90
2018-10-01T15:11:14.579Z,11.53
2018-10-01T15:13:42.654Z,13.13
2018-10-01T15:16:10.049Z,14.25
2018-10-01T15:18:37.561Z,11.28
2018-10-01T15:21:04.825Z,11.50
2018-10-01T15:23:32.166Z,11.50
2018-10-01T15:25:59.520Z,11.88
2018-10-01T15:28:26.868Z,12.28
2018-10-01T15:30:54.389Z,11.28
2018-10-01T15:33:21.756Z,22.55
2018-10-01T15:35:49.224Z,11.83
2018-10-01T15:38:16.614Z,11.85
2018-10-01T15:40:43.913Z,17.20
2018-10-01T15:43:11.260Z,12.43
2018-10-01T15:45:38.616Z,12.33
2018-10-01T15:48:06.146Z,12.10
2018-10-01T15:50:33.914Z,12.00
2018-10-01T15:53:01.238Z,13.15
2018-10-01T15:55:28.764Z,10.72
2018-10-01T15:57:56.126Z,12.30
2018-10-01T16:00:23.577Z,14.68
2018-10-01T16:02:50.948Z,13.80
2018-10-01T16:05:18.387Z,10.98
2018-10-01T16:07:45.742Z,10.93
2018-10-01T16:10:14.009Z,10.78
2018-10-01T16:12:41.457Z,10.60
2018-10-01T16:15:08.795Z,11.33
2018-10-01T16:17:36.669Z,11.12
2018-10-01T16:20:04.128Z,10.78
2018-10-01T16:22:31.508Z,11.10
2018-10-01T16:24:58.843Z,10.38
2018-10-01T16:27:26.916Z,10.48
2018-10-01T16:29:54.267Z,11.97
2018-10-01T16:32:21.647Z,12.00
2018-10-01T16:34:49.070Z,10.43
2018-10-01T16:37:16.434Z,11.10
2018-10-01T16:39:43.777Z,10.43
2018-10-01T16:42:11.125Z,11.48
2018-10-01T16:44:38.654Z,10.75
2018-10-01T16:47:06.030Z,11.40
2018-10-01T16:49:33.404Z,11.43
2018-10-01T16:52:00.858Z,10.85
2018-10-01T16:54:28.344Z,10.70
2018-10-01T16:56:55.690Z,11.22
2018-10-01T16:59:23.112Z,11.18
2018-10-01T17:01:50.544Z,11.48
2018-10-01T17:04:18.035Z,10.63
2018-10-01T17:06:45.411Z,12.43
2018-10-01T17:09:12.822Z,10.53
2018-10-01T17:11:40.227Z,11.12
2018-10-01T17:14:07.657Z,11.03
2018-10-01T17:16:35.138Z,10.48
2018-10-01T17:19:02.589Z,9.98
2018-10-01T17:21:30.145Z,10.08
2018-10-01T17:23:57.505Z,11.73
2018-10-01T17:26:25.040Z,10.15
2018-10-01T17:28:52.440Z,10.45
2018-10-01T17:31:20.447Z,12.78
2018-10-01T17:33:47.861Z,11.38
2018-10-01T17:36:15.328Z,12.13
2018-10-01T17:38:42.758Z,10.40
2018-10-01T17:41:10.196Z,10.55
2018-10-01T17:43:37.652Z,11.83
2018-10-01T17:46:05.186Z,10.70
2018-10-01T17:48:32.591Z,10.25
2018-10-01T17:51:00.044Z,11.65
2018-10-01T17:53:27.386Z,10.78
2018-10-01T17:55:54.826Z,10.50
2018-10-01T17:58:22.218Z,10.35
2018-10-01T18:00:50.012Z,9.88
2018-10-01T18:03:17.553Z,12.60
2018-10-01T18:05:45.064Z,11.18
2018-10-01T18:08:12.635Z,11.03
2018-10-01T18:10:40.025Z,12.13
2018-10-01T18:13:07.418Z,10.40
2018-10-01T18:15:34.923Z,10.40
2018-10-01T18:18:02.421Z,12.03
2018-10-01T18:20:29.742Z,9.98
2018-10-01T18:22:57.389Z,11.10
2018-10-01T18:25:24.786Z,10.88
2018-10-01T18:27:52.159Z,10.75
2018-10-01T18:30:19.671Z,11.38
2018-10-01T18:32:46.972Z,11.55
2018-10-01T18:35:14.452Z,10.90
2018-10-01T18:37:41.929Z,11.10
2018-10-01T18:40:10.331Z,12.82
2018-10-01T18:42:38.312Z,11.83
2018-10-01T18:45:05.735Z,11.55
2018-10-01T18:47:33.201Z,10.95
2018-10-01T18:50:00.718Z,11.30
2018-10-01T18:52:28.399Z,10.95
2018-10-01T18:54:55.902Z,12.13
2018-10-01T18:57:24.166Z,11.80
2018-10-01T18:59:51.803Z,11.05
2018-10-01T19:02:19.451Z,12.63
2018-10-01T19:04:47.120Z,11.63
2018-10-01T19:07:14.619Z,11.85
2018-10-01T19:09:42.121Z,11.95
2018-10-01T19:12:09.616Z,12.13
2018-10-01T19:14:37.040Z,11.57
2018-10-01T19:17:04.500Z,11.57
2018-10-01T19:19:31.920Z,10.90
2018-10-01T19:21:59.473Z,11.60
2018-10-01T19:24:26.836Z,12.85
2018-10-01T19:26:54.347Z,11.75
2018-10-01T19:29:21.781Z,11.28
2018-10-01T19:31:49.311Z,11.38
2018-10-01T19:34:16.810Z,11.90
2018-10-01T19:36:44.292Z,12.37
2018-10-01T19:39:11.785Z,12.28
2018-10-01T19:41:39.192Z,10.90
2018-10-01T19:44:06.669Z,10.75
2018-10-01T19:46:34.153Z,12.45
2018-10-01T19:49:01.660Z,11.97
2018-10-01T19:51:29.024Z,11.73
2018-10-01T19:53:56.543Z,11.50
2018-10-01T19:56:24.022Z,10.82
2018-10-01T19:58:51.556Z,11.48
2018-10-01T20:01:18.946Z,12.07
2018-10-01T20:03:47.490Z,11.65
2018-10-01T20:06:14.983Z,12.18
2018-10-01T20:08:42.454Z,12.47
2018-10-01T20:11:09.880Z,11.90
2018-10-01T20:13:37.357Z,10.45
2018-10-01T20:16:04.816Z,11.70
2018-10-01T20:18:32.245Z,11.55
2018-10-01T20:20:59.725Z,10.80
2018-10-01T20:23:27.082Z,11.80
2018-10-01T20:25:54.463Z,11.38
2018-10-01T20:28:21.970Z,11.18
2018-10-01T20:30:49.438Z,11.18
2018-10-01T20:33:16.843Z,11.28
2018-10-01T20:35:44.561Z,10.23
2018-10-01T20:38:11.981Z,11.68
2018-10-01T20:40:39.279Z,11.40
2018-10-01T20:43:07.223Z,11.60
2018-10-01T20:45:34.782Z,10.45
2018-10-01T20:48:02.587Z,11.30
2018-10-01T20:50:30.117Z,11.55
2018-10-01T20:52:57.491Z,11.97
2018-10-01T20:55:24.797Z,10.38
2018-10-01T20:57:52.329Z,10.70
2018-10-01T21:00:19.850Z,11.70
2018-10-01T21:02:47.250Z,12.15
2018-10-01T21:05:14.580Z,11.18
2018-10-01T21:07:42.871Z,11.60
2018-10-01T21:10:10.209Z,11.93
2018-10-01T21:12:37.622Z,11.90
2018-10-01T21:15:05.083Z,11.93
2018-10-01T21:17:32.492Z,11.63
2018-10-01T21:19:59.804Z,11.20
2018-10-01T21:22:27.378Z,11.28
2018-10-01T21:24:54.630Z,10.68
2018-10-01T21:27:22.035Z,11.18
2018-10-01T21:29:49.306Z,12.45
2018-10-01T21:32:16.624Z,11.03
2018-10-01T21:34:44.107Z,10.88
2018-10-01T21:37:11.609Z,10.50
2018-10-01T21:39:51.975Z,11.88
2018-10-01T21:42:19.348Z,10.75
2018-10-01T21:44:46.757Z,11.83
2018-10-01T21:47:14.273Z,11.73
2018-10-01T21:49:41.583Z,11.20
2018-10-01T21:52:08.870Z,10.40
2018-10-01T21:54:36.243Z,11.20
2018-10-01T21:57:03.693Z,11.30
2018-10-01T21:59:31.058Z,11.35
2018-10-01T22:01:58.584Z,11.88
2018-10-01T22:04:26.080Z,11.00
2018-10-01T22:06:53.646Z,11.08
2018-10-01T22:09:20.946Z,10.50
2018-10-01T22:11:48.334Z,10.40
2018-10-01T22:14:15.694Z,11.12
2018-10-01T22:16:43.184Z,11.70
2018-10-01T22:19:10.509Z,10.15
2018-10-01T22:21:37.810Z,11.03
2018-10-01T22:24:05.242Z,10.60
2018-10-01T22:26:32.591Z,10.90
2018-10-01T22:29:00.023Z,10.95
2018-10-01T22:31:27.377Z,11.85
2018-10-01T22:33:54.837Z,11.70
2018-10-01T22:36:22.192Z,10.15
2018-10-01T22:38:49.541Z,11.60
2018-10-01T22:41:16.944Z,10.08
2018-10-01T22:43:44.201Z,10.72
2018-10-01T22:46:11.701Z,10.60
2018-10-01T22:48:39.079Z,11.90
2018-10-01T22:51:06.525Z,10.95
2018-10-01T22:53:34.215Z,10.82
2018-10-01T22:56:01.603Z,10.35
2018-10-01T22:58:29.016Z,10.38
2018-10-01T23:00:56.448Z,10.05
2018-10-01T23:03:23.725Z,11.12
2018-10-01T23:05:51.032Z,10.20
2018-10-01T23:08:18.478Z,10.55
2018-10-01T23:10:45.879Z,10.93
2018-10-01T23:13:13.209Z,10.65
2018-10-01T23:15:40.590Z,10.32
2018-10-01T23:18:07.937Z,10.93
2018-10-01T23:20:36.058Z,9.75
2018-10-01T23:23:03.298Z,9.78
2018-10-01T23:25:30.683Z,11.33
2018-10-01T23:27:58.642Z,10.32
2018-10-01T23:30:25.906Z,10.80
2018-10-01T23:32:53.178Z,10.80
2018-10-01T23:35:20.537Z,9.65
2018-10-01T23:37:47.934Z,10.90
2018-10-01T23:40:15.181Z,9.98
2018-10-01T23:42:42.512Z,9.78
2018-10-01T23:45:09.838Z,9.95
2018-10-01T23:47:37.113Z,10.03
2018-10-01T23:50:06.058Z,10.10
2018-10-01T23:52:33.946Z,9.70
2018-10-01T23:55:01.994Z,9.65
2018-10-01T23:57:29.298Z,9.50
2018-10-01T23:59:56.613Z,10.38
